Airfield :







YOU CAN JOIN US ON...

 
LOGIN :

Register | Disclaimer

   EN    FR    IT 

 









Legend :    VFR   Marginal VFR   IFR   Intensive IFR   Very Intensive IFR
Visi :
Ceiling :
>= 8 km
>= 3000ft
5 to 8 km
1000 to 3000 ft
1500m to 5 km
500 to 1000 ft
800 to 1500m
200 to 500 ft
< 800m
< 200 ft
Symbols :   Thunderstorms  Fog  Heavy snow  Heavy precipitations  Wind > 20 kt






- Airport Elevation : 39 ft
- IATA code : YNA


CYNA - Natashquan

CURRENT METAR :
  • 150900Z AUTO 33009KT 9SM FEW029 OVC039 16/15 A2982 RMK SLP099 DENSITY ALT 300FT

EXPIRED METARs :
  • 150844Z AUTO 33008KT 9SM FEW017 SCT023 OVC032 16/15 A2982 RMK SLP099 DENSITY ALT 300FT
  • 150811Z AUTO 31003KT 9SM BKN012 OVC018 16/15 A2982 RMK SLP099 DENSITY ALT 300FT
  • 150746Z AUTO 34007KT 3SM -RA BR OVC017 15/15 A2982 RMK SLP100 DENSITY ALT 300FT
  • 150737Z AUTO 34007KT 2SM -RA BR OVC017 16/15 A2982 RMK SLP100 DENSITY ALT 300FT
  • 150736Z AUTO 34008KT 2SM BR OVC017 16/15 A2982 RMK SLP100 DENSITY ALT 300FT
  • 150713Z AUTO 34006KT 6SM BR BKN022 OVC028 16/15 A2982 RMK SLP100 DENSITY ALT 300FT
  • 150706Z AUTO 34006KT 5SM BR BKN022 OVC030 16/15 A2982 RMK SLP100 DENSITY ALT 300FT

TAF TAF CYNA
Valid from the 15 at 08:00 until the 15 at 20:00 UTC


150741Z 1508/1520 34007KT 2SM -RA BR OVC015
TEMPO 1508/1512 6SM BR OVC030
PROB30 1508/1512 1SM -RA BR BKN003
FM151200 32010G20KT P6SM FEW020 BKN040
FM151600 27012G22KT P6SM SCT040
TEMPO 1516/1520 P6SM -SHRA BKN040
PROB30 1518/1520 VRB15G25KT 2SM TSRA BR OVC015CB RMK FCST BASED ON AUTO OBS. NXT FCST BY 151400Z
CZUL FIR / North America



MET'MAP, your aeronautical weather chart ! - Copyright ORBIFLY December 2007 - Disclaimer

ORBIFLY MET'MAP TEAM :

Programming & Development : Alexandra Zaïnal
Original concept : Baudouin d'Aumeries
Technical & hardware support : Manuel Goepfert
Assistance : Marc-Olivier Méhu




SOURCES & CREDITS :

   NOAA